sensor_id;sensor_type;location;lat;lon;timestamp;pressure;altitude;pressure_sealevel;temperature;humidity
21111;BME280;10713;51.912;4.494;2024-03-25T00:00:31;100828.19;;;7.50;100.00
21111;BME280;10713;51.912;4.494;2024-03-25T00:02:56;100825.03;;;7.38;100.00
21111;BME280;10713;51.912;4.494;2024-03-25T00:05:22;100825.03;;;7.38;100.00
21111;BME280;10713;51.912;4.494;2024-03-25T00:07:49;100822.34;;;7.40;100.00
21111;BME280;10713;51.912;4.494;2024-03-25T00:10:15;100831.94;;;7.41;100.00
21111;BME280;10713;51.912;4.494;2024-03-25T00:12:40;100825.66;;;7.47;100.00
21111;BME280;10713;51.912;4.494;2024-03-25T00:15:06;100817.84;;;7.45;100.00
21111;BME280;10713;51.912;4.494;2024-03-25T00:17:32;100820.53;;;7.42;100.00
21111;BME280;10713;51.912;4.494;2024-03-25T00:19:57;100825.63;;;7.48;100.00
21111;BME280;10713;51.912;4.494;2024-03-25T00:22:23;100819.59;;;7.44;100.00
21111;BME280;10713;51.912;4.494;2024-03-25T00:24:50;100811.94;;;7.35;100.00
21111;BME280;10713;51.912;4.494;2024-03-25T00:27:16;100818.09;;;7.36;100.00
21111;BME280;10713;51.912;4.494;2024-03-25T00:29:42;100819.78;;;7.37;100.00
21111;BME280;10713;51.912;4.494;2024-03-25T00:32:10;100820.78;;;7.33;100.00
21111;BME280;10713;51.912;4.494;2024-03-25T00:34:36;100820.22;;;7.20;100.00
21111;BME280;10713;51.912;4.494;2024-03-25T00:37:02;100822.19;;;7.12;100.00
21111;BME280;10713;51.912;4.494;2024-03-25T00:39:29;100821.50;;;7.04;100.00
21111;BME280;10713;51.912;4.494;2024-03-25T00:41:57;100829.53;;;6.99;100.00
21111;BME280;10713;51.912;4.494;2024-03-25T00:44:23;100826.03;;;6.98;100.00
21111;BME280;10713;51.912;4.494;2024-03-25T00:46:48;100833.69;;;7.06;100.00
21111;BME280;10713;51.912;4.494;2024-03-25T00:49:13;100837.09;;;7.11;100.00
21111;BME280;10713;51.912;4.494;2024-03-25T00:51:39;100833.44;;;7.17;100.00
21111;BME280;10713;51.912;4.494;2024-03-25T00:54:04;100828.00;;;7.25;100.00
21111;BME280;10713;51.912;4.494;2024-03-25T00:56:30;100834.88;;;7.30;100.00
21111;BME280;10713;51.912;4.494;2024-03-25T00:58:56;100839.03;;;7.37;100.00
21111;BME280;10713;51.912;4.494;2024-03-25T01:01:23;100838.78;;;7.47;100.00
21111;BME280;10713;51.912;4.494;2024-03-25T01:03:49;100842.00;;;7.58;100.00
21111;BME280;10713;51.912;4.494;2024-03-25T01:06:14;100840.19;;;7.60;100.00
21111;BME280;10713;51.912;4.494;2024-03-25T01:08:40;100843.66;;;7.62;100.00
21111;BME280;10713;51.912;4.494;2024-03-25T01:11:05;100840.88;;;7.66;100.00
21111;BME280;10713;51.912;4.494;2024-03-25T01:13:31;100837.31;;;7.69;100.00
21111;BME280;10713;51.912;4.494;2024-03-25T01:15:56;100843.41;;;7.71;100.00
21111;BME280;10713;51.912;4.494;2024-03-25T01:18:22;100839.84;;;7.72;100.00
21111;BME280;10713;51.912;4.494;2024-03-25T01:20:48;100835.50;;;7.73;100.00
21111;BME280;10713;51.912;4.494;2024-03-25T01:23:15;100838.06;;;7.74;100.00
21111;BME280;10713;51.912;4.494;2024-03-25T01:25:40;100836.19;;;7.78;100.00
21111;BME280;10713;51.912;4.494;2024-03-25T01:28:05;100831.59;;;7.86;100.00
21111;BME280;10713;51.912;4.494;2024-03-25T01:30:31;100823.69;;;7.87;100.00
21111;BME280;10713;51.912;4.494;2024-03-25T01:32:57;100828.00;;;7.90;100.00
21111;BME280;10713;51.912;4.494;2024-03-25T01:35:22;100827.03;;;7.93;100.00
21111;BME280;10713;51.912;4.494;2024-03-25T01:37:49;100824.53;;;7.88;100.00
21111;BME280;10713;51.912;4.494;2024-03-25T01:40:14;100819.44;;;7.82;100.00
21111;BME280;10713;51.912;4.494;2024-03-25T01:42:39;100821.38;;;7.75;100.00
21111;BME280;10713;51.912;4.494;2024-03-25T01:45:06;100826.78;;;7.71;100.00
21111;BME280;10713;51.912;4.494;2024-03-25T01:47:32;100819.16;;;7.61;100.00
21111;BME280;10713;51.912;4.494;2024-03-25T01:50:00;100820.25;;;7.53;100.00
21111;BME280;10713;51.912;4.494;2024-03-25T01:52:27;100816.91;;;7.48;100.00
21111;BME280;10713;51.912;4.494;2024-03-25T01:54:53;100819.53;;;7.46;100.00
21111;BME280;10713;51.912;4.494;2024-03-25T01:57:19;100820.56;;;7.40;100.00
21111;BME280;10713;51.912;4.494;2024-03-25T01:59:45;100814.75;;;7.29;100.00
21111;BME280;10713;51.912;4.494;2024-03-25T02:02:12;100814.03;;;7.24;100.00
21111;BME280;10713;51.912;4.494;2024-03-25T02:04:39;100813.28;;;7.17;100.00
21111;BME280;10713;51.912;4.494;2024-03-25T02:07:05;100821.25;;;7.14;100.00
21111;BME280;10713;51.912;4.494;2024-03-25T02:09:33;100827.34;;;7.16;100.00
21111;BME280;10713;51.912;4.494;2024-03-25T02:11:58;100825.56;;;7.17;100.00
21111;BME280;10713;51.912;4.494;2024-03-25T02:14:24;100816.06;;;7.11;100.00
21111;BME280;10713;51.912;4.494;2024-03-25T02:16:50;100812.50;;;7.15;100.00
21111;BME280;10713;51.912;4.494;2024-03-25T02:19:15;100808.03;;;7.17;100.00
21111;BME280;10713;51.912;4.494;2024-03-25T02:21:42;100801.94;;;7.17;100.00
21111;BME280;10713;51.912;4.494;2024-03-25T02:24:09;100803.66;;;7.18;100.00
21111;BME280;10713;51.912;4.494;2024-03-25T02:26:35;100813.09;;;7.25;100.00
21111;BME280;10713;51.912;4.494;2024-03-25T02:29:00;100795.31;;;7.36;100.00
21111;BME280;10713;51.912;4.494;2024-03-25T02:31:26;100786.50;;;7.39;100.00
21111;BME280;10713;51.912;4.494;2024-03-25T02:33:51;100789.97;;;7.39;100.00
21111;BME280;10713;51.912;4.494;2024-03-25T02:36:17;100789.97;;;7.39;100.00
21111;BME280;10713;51.912;4.494;2024-03-25T02:38:42;100785.91;;;7.28;100.00
21111;BME280;10713;51.912;4.494;2024-03-25T02:41:08;100782.69;;;7.16;100.00
21111;BME280;10713;51.912;4.494;2024-03-25T02:43:34;100786.38;;;7.09;100.00
21111;BME280;10713;51.912;4.494;2024-03-25T02:45:59;100785.88;;;6.95;100.00
21111;BME280;10713;51.912;4.494;2024-03-25T02:48:25;100781.72;;;6.86;100.00
21111;BME280;10713;51.912;4.494;2024-03-25T02:50:50;100788.56;;;6.92;100.00
21111;BME280;10713;51.912;4.494;2024-03-25T02:53:16;100782.22;;;7.00;100.00
21111;BME280;10713;51.912;4.494;2024-03-25T02:55:41;100783.84;;;7.06;100.00
21111;BME280;10713;51.912;4.494;2024-03-25T02:58:06;100779.66;;;6.99;100.00
21111;BME280;10713;51.912;4.494;2024-03-25T03:00:32;100780.53;;;6.98;100.00
21111;BME280;10713;51.912;4.494;2024-03-25T03:02:57;100785.06;;;6.93;100.00
21111;BME280;10713;51.912;4.494;2024-03-25T03:05:22;100782.63;;;6.84;100.00
21111;BME280;10713;51.912;4.494;2024-03-25T03:07:48;100780.03;;;6.84;100.00
21111;BME280;10713;51.912;4.494;2024-03-25T03:10:13;100778.94;;;6.92;100.00
21111;BME280;10713;51.912;4.494;2024-03-25T03:12:38;100780.53;;;6.98;100.00
21111;BME280;10713;51.912;4.494;2024-03-25T03:15:04;100782.13;;;7.05;100.00
21111;BME280;10713;51.912;4.494;2024-03-25T03:17:30;100769.09;;;7.00;100.00
21111;BME280;10713;51.912;4.494;2024-03-25T03:19:55;100767.56;;;6.92;100.00
21111;BME280;10713;51.912;4.494;2024-03-25T03:22:20;100778.16;;;6.89;100.00
21111;BME280;10713;51.912;4.494;2024-03-25T03:24:46;100774.72;;;6.87;100.00
21111;BME280;10713;51.912;4.494;2024-03-25T03:27:11;100770.25;;;6.90;100.00
21111;BME280;10713;51.912;4.494;2024-03-25T03:29:36;100763.47;;;6.82;100.00
21111;BME280;10713;51.912;4.494;2024-03-25T03:32:02;100762.81;;;6.72;100.00
21111;BME280;10713;51.912;4.494;2024-03-25T03:34:27;100767.13;;;6.74;100.00
21111;BME280;10713;51.912;4.494;2024-03-25T03:36:52;100773.75;;;6.89;100.00
21111;BME280;10713;51.912;4.494;2024-03-25T03:39:18;100777.06;;;6.97;100.00
21111;BME280;10713;51.912;4.494;2024-03-25T03:41:44;100768.16;;;7.03;100.00
21111;BME280;10713;51.912;4.494;2024-03-25T03:44:09;100767.19;;;7.07;100.00
21111;BME280;10713;51.912;4.494;2024-03-25T03:46:35;100762.97;;;7.02;100.00
21111;BME280;10713;51.912;4.494;2024-03-25T03:49:00;100766.44;;;7.02;100.00
21111;BME280;10713;51.912;4.494;2024-03-25T03:51:25;100764.00;;;6.94;100.00
21111;BME280;10713;51.912;4.494;2024-03-25T03:53:51;100760.53;;;6.94;100.00
21111;BME280;10713;51.912;4.494;2024-03-25T03:56:16;100767.28;;;7.04;100.00
21111;BME280;10713;51.912;4.494;2024-03-25T03:58:42;100759.53;;;6.98;100.00
21111;BME280;10713;51.912;4.494;2024-03-25T04:01:15;100760.44;;;6.98;100.00
21111;BME280;10713;51.912;4.494;2024-03-25T04:03:41;100757.94;;;6.92;100.00
21111;BME280;10713;51.912;4.494;2024-03-25T04:06:11;100759.59;;;6.96;100.00
21111;BME280;10713;51.912;4.494;2024-03-25T04:08:41;100754.38;;;6.95;100.00
21111;BME280;10713;51.912;4.494;2024-03-25T04:11:06;100754.59;;;6.87;100.00
21111;BME280;10713;51.912;4.494;2024-03-25T04:13:33;100743.38;;;6.81;100.00
21111;BME280;10713;51.912;4.494;2024-03-25T04:16:05;100750.63;;;6.71;100.00
21111;BME280;10713;51.912;4.494;2024-03-25T04:18:32;100754.88;;;6.75;100.00
21111;BME280;10713;51.912;4.494;2024-03-25T04:20:58;100759.25;;;6.74;100.00
21111;BME280;10713;51.912;4.494;2024-03-25T04:23:24;100752.53;;;6.64;100.00
21111;BME280;10713;51.912;4.494;2024-03-25T04:25:50;100759.75;;;6.54;100.00
21111;BME280;10713;51.912;4.494;2024-03-25T04:28:16;100753.56;;;6.57;100.00
21111;BME280;10713;51.912;4.494;2024-03-25T04:30:41;100759.59;;;6.61;100.00
21111;BME280;10713;51.912;4.494;2024-03-25T04:33:07;100761.50;;;6.54;100.00
21111;BME280;10713;51.912;4.494;2024-03-25T04:35:33;100755.44;;;6.52;100.00
21111;BME280;10713;51.912;4.494;2024-03-25T04:37:58;100758.03;;;6.53;100.00
21111;BME280;10713;51.912;4.494;2024-03-25T04:40:23;100771.06;;;6.58;100.00
21111;BME280;10713;51.912;4.494;2024-03-25T04:42:49;100774.25;;;6.69;100.00
21111;BME280;10713;51.912;4.494;2024-03-25T04:45:14;100766.44;;;6.68;100.00
21111;BME280;10713;51.912;4.494;2024-03-25T04:47:40;100771.63;;;6.69;100.00
21111;BME280;10713;51.912;4.494;2024-03-25T04:50:06;100778.53;;;6.73;100.00
21111;BME280;10713;51.912;4.494;2024-03-25T04:52:32;100764.44;;;6.77;100.00
21111;BME280;10713;51.912;4.494;2024-03-25T04:54:57;100775.88;;;6.75;100.00
21111;BME280;10713;51.912;4.494;2024-03-25T04:57:23;100770.91;;;6.63;100.00
21111;BME280;10713;51.912;4.494;2024-03-25T04:59:49;100765.81;;;6.58;100.00
21111;BME280;10713;51.912;4.494;2024-03-25T05:02:14;100767.47;;;6.61;100.00
21111;BME280;10713;51.912;4.494;2024-03-25T05:04:40;100766.75;;;6.54;100.00
21111;BME280;10713;51.912;4.494;2024-03-25T05:07:05;100770.22;;;6.56;100.00
21111;BME280;10713;51.912;4.494;2024-03-25T05:09:31;100783.09;;;6.65;100.00
21111;BME280;10713;51.912;4.494;2024-03-25T05:11:56;100780.47;;;6.65;100.00
21111;BME280;10713;51.912;4.494;2024-03-25T05:14:22;100783.13;;;6.64;100.00
21111;BME280;10713;51.912;4.494;2024-03-25T05:16:47;100773.53;;;6.64;100.00
21111;BME280;10713;51.912;4.494;2024-03-25T05:19:14;100771.84;;;6.62;100.00
21111;BME280;10713;51.912;4.494;2024-03-25T05:21:39;100764.22;;;6.51;100.00
21111;BME280;10713;51.912;4.494;2024-03-25T05:24:04;100771.97;;;6.56;100.00
21111;BME280;10713;51.912;4.494;2024-03-25T05:26:30;100771.56;;;6.72;100.00
21111;BME280;10713;51.912;4.494;2024-03-25T05:28:56;100778.56;;;6.72;100.00
21111;BME280;10713;51.912;4.494;2024-03-25T05:31:22;100769.75;;;6.74;100.00
21111;BME280;10713;51.912;4.494;2024-03-25T05:33:48;100763.72;;;6.71;100.00
21111;BME280;10713;51.912;4.494;2024-03-25T05:36:13;100757.72;;;6.67;100.00
21111;BME280;10713;51.912;4.494;2024-03-25T05:38:39;100758.47;;;6.71;100.00
21111;BME280;10713;51.912;4.494;2024-03-25T05:41:04;100761.88;;;6.74;100.00
21111;BME280;10713;51.912;4.494;2024-03-25T05:43:30;100754.50;;;6.90;100.00
21111;BME280;10713;51.912;4.494;2024-03-25T05:45:56;100760.28;;;7.03;100.00
21111;BME280;10713;51.912;4.494;2024-03-25T05:48:24;100754.50;;;7.25;100.00
21111;BME280;10713;51.912;4.494;2024-03-25T05:51:06;100746.22;;;7.70;100.00
21111;BME280;10713;51.912;4.494;2024-03-25T05:53:34;100745.13;;;8.06;100.00
21111;BME280;10713;51.912;4.494;2024-03-25T05:55:59;100736.94;;;8.45;100.00
21111;BME280;10713;51.912;4.494;2024-03-25T05:58:25;100735.44;;;8.90;100.00
21111;BME280;10713;51.912;4.494;2024-03-25T06:00:51;100720.63;;;9.37;100.00
21111;BME280;10713;51.912;4.494;2024-03-25T06:03:18;100717.09;;;9.62;100.00
21111;BME280;10713;51.912;4.494;2024-03-25T06:05:43;100714.41;;;10.09;100.00
21111;BME280;10713;51.912;4.494;2024-03-25T06:08:09;100707.97;;;10.40;100.00
21111;BME280;10713;51.912;4.494;2024-03-25T06:10:43;100694.13;;;10.75;100.00
21111;BME280;10713;51.912;4.494;2024-03-25T06:13:09;100687.63;;;11.04;100.00
21111;BME280;10713;51.912;4.494;2024-03-25T06:15:34;100683.41;;;11.40;100.00
21111;BME280;10713;51.912;4.494;2024-03-25T06:17:59;100684.66;;;12.08;100.00
21111;BME280;10713;51.912;4.494;2024-03-25T06:20:25;100668.06;;;12.76;100.00
21111;BME280;10713;51.912;4.494;2024-03-25T06:22:51;100654.03;;;13.08;100.00
21111;BME280;10713;51.912;4.494;2024-03-25T06:25:16;100658.78;;;13.02;100.00
21111;BME280;10713;51.912;4.494;2024-03-25T06:27:42;100655.38;;;13.33;100.00
21111;BME280;10713;51.912;4.494;2024-03-25T06:30:09;100663.50;;;13.95;100.00
21111;BME280;10713;51.912;4.494;2024-03-25T06:32:53;100659.06;;;14.57;100.00
21111;BME280;10713;51.912;4.494;2024-03-25T06:35:37;100655.47;;;15.74;100.00
21111;BME280;10713;51.912;4.494;2024-03-25T06:38:03;100648.84;;;16.88;100.00
21111;BME280;10713;51.912;4.494;2024-03-25T06:40:28;100654.41;;;17.73;100.00
21111;BME280;10713;51.912;4.494;2024-03-25T06:42:53;100654.88;;;18.28;100.00
21111;BME280;10713;51.912;4.494;2024-03-25T06:45:19;100647.22;;;18.59;100.00
21111;BME280;10713;51.912;4.494;2024-03-25T06:47:44;100646.41;;;19.16;100.00
21111;BME280;10713;51.912;4.494;2024-03-25T06:50:10;100646.94;;;19.66;100.00
21111;BME280;10713;51.912;4.494;2024-03-25T06:52:35;100645.44;;;19.51;100.00
21111;BME280;10713;51.912;4.494;2024-03-25T06:55:00;100640.16;;;20.06;100.00
21111;BME280;10713;51.912;4.494;2024-03-25T06:57:26;100637.81;;;20.56;100.00
21111;BME280;10713;51.912;4.494;2024-03-25T06:59:51;100635.25;;;20.96;100.00
21111;BME280;10713;51.912;4.494;2024-03-25T07:02:17;100635.69;;;20.80;100.00
21111;BME280;10713;51.912;4.494;2024-03-25T07:04:42;100630.88;;;20.53;100.00
21111;BME280;10713;51.912;4.494;2024-03-25T07:07:07;100632.25;;;20.36;100.00
21111;BME280;10713;51.912;4.494;2024-03-25T07:09:33;100628.19;;;20.42;100.00
21111;BME280;10713;51.912;4.494;2024-03-25T07:11:59;100630.34;;;20.80;100.00
21111;BME280;10713;51.912;4.494;2024-03-25T07:14:24;100633.63;;;20.84;100.00
21111;BME280;10713;51.912;4.494;2024-03-25T07:16:50;100624.72;;;20.62;100.00
21111;BME280;10713;51.912;4.494;2024-03-25T07:19:15;100631.47;;;20.13;100.00
21111;BME280;10713;51.912;4.494;2024-03-25T07:21:41;100635.81;;;19.48;91.04
21111;BME280;10713;51.912;4.494;2024-03-25T07:24:06;100637.16;;;19.31;91.53
21111;BME280;10713;51.912;4.494;2024-03-25T07:26:31;100639.59;;;19.01;97.10
21111;BME280;10713;51.912;4.494;2024-03-25T07:28:57;100641.09;;;18.34;84.51
21111;BME280;10713;51.912;4.494;2024-03-25T07:31:22;100634.47;;;17.66;90.78
21111;BME280;10713;51.912;4.494;2024-03-25T07:33:48;100638.03;;;17.41;89.86
21111;BME280;10713;51.912;4.494;2024-03-25T07:36:13;100647.56;;;17.32;86.03
21111;BME280;10713;51.912;4.494;2024-03-25T07:38:39;100635.50;;;17.76;94.66
21111;BME280;10713;51.912;4.494;2024-03-25T07:41:04;100642.56;;;18.14;81.79
21111;BME280;10713;51.912;4.494;2024-03-25T07:43:30;100646.78;;;19.11;86.06
21111;BME280;10713;51.912;4.494;2024-03-25T07:45:55;100645.19;;;19.43;79.99
21111;BME280;10713;51.912;4.494;2024-03-25T07:48:20;100648.25;;;20.27;77.70
21111;BME280;10713;51.912;4.494;2024-03-25T07:50:46;100649.00;;;20.82;71.74
21111;BME280;10713;51.912;4.494;2024-03-25T07:53:11;100654.88;;;21.18;67.25
21111;BME280;10713;51.912;4.494;2024-03-25T07:55:37;100647.50;;;21.20;73.02
21111;BME280;10713;51.912;4.494;2024-03-25T07:58:02;100653.00;;;21.39;67.86
21111;BME280;10713;51.912;4.494;2024-03-25T08:00:28;100660.44;;;22.07;67.68
21111;BME280;10713;51.912;4.494;2024-03-25T08:02:53;100652.00;;;22.60;65.72
21111;BME280;10713;51.912;4.494;2024-03-25T08:05:19;100659.19;;;22.69;63.18
21111;BME280;10713;51.912;4.494;2024-03-25T08:07:45;100656.63;;;22.77;63.43
21111;BME280;10713;51.912;4.494;2024-03-25T08:10:10;100659.47;;;23.79;61.87
21111;BME280;10713;51.912;4.494;2024-03-25T08:12:36;100660.03;;;24.46;54.48
21111;BME280;10713;51.912;4.494;2024-03-25T08:15:01;100661.13;;;24.54;59.49
21111;BME280;10713;51.912;4.494;2024-03-25T08:17:26;100660.00;;;25.08;59.07
21111;BME280;10713;51.912;4.494;2024-03-25T08:19:52;100648.19;;;24.83;57.34
21111;BME280;10713;51.912;4.494;2024-03-25T08:22:17;100650.47;;;25.14;56.97
21111;BME280;10713;51.912;4.494;2024-03-25T08:24:43;100664.03;;;24.78;58.08
21111;BME280;10713;51.912;4.494;2024-03-25T08:27:08;100650.00;;;25.19;56.39
21111;BME280;10713;51.912;4.494;2024-03-25T08:29:33;100648.94;;;25.46;57.28
21111;BME280;10713;51.912;4.494;2024-03-25T08:31:59;100659.09;;;25.86;54.19
21111;BME280;10713;51.912;4.494;2024-03-25T08:34:24;100648.19;;;25.61;53.02
21111;BME280;10713;51.912;4.494;2024-03-25T08:36:49;100640.91;;;25.62;55.54
21111;BME280;10713;51.912;4.494;2024-03-25T08:39:15;100638.63;;;25.41;54.80
21111;BME280;10713;51.912;4.494;2024-03-25T08:41:40;100633.34;;;25.05;54.30
21111;BME280;10713;51.912;4.494;2024-03-25T08:44:06;100640.41;;;24.09;53.52
21111;BME280;10713;51.912;4.494;2024-03-25T08:46:31;100651.94;;;23.46;55.49
21111;BME280;10713;51.912;4.494;2024-03-25T08:48:57;100644.66;;;23.28;56.50
21111;BME280;10713;51.912;4.494;2024-03-25T08:51:23;100638.78;;;23.43;55.52
21111;BME280;10713;51.912;4.494;2024-03-25T08:53:48;100635.53;;;23.76;55.53
21111;BME280;10713;51.912;4.494;2024-03-25T08:56:15;100637.94;;;22.85;55.56
21111;BME280;10713;51.912;4.494;2024-03-25T08:58:40;100632.84;;;23.39;55.92
21111;BME280;10713;51.912;4.494;2024-03-25T09:01:05;100628.88;;;22.96;53.21
21111;BME280;10713;51.912;4.494;2024-03-25T09:03:31;100633.09;;;23.08;54.35
21111;BME280;10713;51.912;4.494;2024-03-25T09:05:57;100636.81;;;22.88;54.70
21111;BME280;10713;51.912;4.494;2024-03-25T09:08:22;100627.59;;;22.90;55.18
21111;BME280;10713;51.912;4.494;2024-03-25T09:10:47;100634.16;;;22.49;55.59
21111;BME280;10713;51.912;4.494;2024-03-25T09:13:29;100642.78;;;22.72;55.74
21111;BME280;10713;51.912;4.494;2024-03-25T09:15:54;100634.31;;;23.61;55.24
21111;BME280;10713;51.912;4.494;2024-03-25T09:18:20;100630.00;;;23.68;54.53
21111;BME280;10713;51.912;4.494;2024-03-25T09:20:46;100629.22;;;23.58;53.82
21111;BME280;10713;51.912;4.494;2024-03-25T09:23:11;100621.88;;;23.50;53.28
21111;BME280;10713;51.912;4.494;2024-03-25T09:25:36;100630.47;;;23.36;53.10
21111;BME280;10713;51.912;4.494;2024-03-25T09:28:02;100615.31;;;24.08;51.38
21111;BME280;10713;51.912;4.494;2024-03-25T09:30:27;100615.19;;;23.54;52.10
21111;BME280;10713;51.912;4.494;2024-03-25T09:32:53;100614.72;;;21.97;52.24
21111;BME280;10713;51.912;4.494;2024-03-25T09:35:18;100611.66;;;21.00;52.45
21111;BME280;10713;51.912;4.494;2024-03-25T09:37:44;100608.31;;;19.80;53.92
21111;BME280;10713;51.912;4.494;2024-03-25T09:40:09;100609.63;;;19.86;55.85
21111;BME280;10713;51.912;4.494;2024-03-25T09:42:48;100605.78;;;19.45;54.69
21111;BME280;10713;51.912;4.494;2024-03-25T09:45:16;100595.16;;;19.77;56.33
21111;BME280;10713;51.912;4.494;2024-03-25T09:47:46;100594.41;;;20.30;55.79
21111;BME280;10713;51.912;4.494;2024-03-25T09:50:13;100594.00;;;20.97;55.62
21111;BME280;10713;51.912;4.494;2024-03-25T09:52:39;100591.94;;;20.80;55.00
21111;BME280;10713;51.912;4.494;2024-03-25T09:55:05;100593.25;;;20.64;55.97
21111;BME280;10713;51.912;4.494;2024-03-25T09:57:31;100582.59;;;21.05;56.41
21111;BME280;10713;51.912;4.494;2024-03-25T09:59:57;100584.41;;;21.66;55.20
21111;BME280;10713;51.912;4.494;2024-03-25T10:02:23;100585.03;;;21.39;53.95
21111;BME280;10713;51.912;4.494;2024-03-25T10:04:51;100581.84;;;20.51;55.19
21111;BME280;10713;51.912;4.494;2024-03-25T10:07:22;100581.34;;;18.93;55.46
21111;BME280;10713;51.912;4.494;2024-03-25T10:09:49;100586.22;;;18.99;57.39
21111;BME280;10713;51.912;4.494;2024-03-25T10:12:14;100578.44;;;18.96;56.25
21111;BME280;10713;51.912;4.494;2024-03-25T10:14:40;100571.31;;;18.61;55.94
21111;BME280;10713;51.912;4.494;2024-03-25T10:17:05;100575.31;;;18.67;55.74
21111;BME280;10713;51.912;4.494;2024-03-25T10:19:33;100571.22;;;18.74;56.83
21111;BME280;10713;51.912;4.494;2024-03-25T10:22:06;100571.56;;;18.23;54.93
21111;BME280;10713;51.912;4.494;2024-03-25T10:27:04;100572.97;;;16.54;58.57
21111;BME280;10713;51.912;4.494;2024-03-25T10:29:29;100567.75;;;16.40;57.75
21111;BME280;10713;51.912;4.494;2024-03-25T10:31:59;100572.97;;;16.67;57.39
21111;BME280;10713;51.912;4.494;2024-03-25T10:34:24;100554.25;;;16.94;56.75
21111;BME280;10713;51.912;4.494;2024-03-25T10:36:50;100565.31;;;17.14;56.60
21111;BME280;10713;51.912;4.494;2024-03-25T10:39:19;100563.13;;;17.68;55.89
21111;BME280;10713;51.912;4.494;2024-03-25T10:41:46;100561.22;;;18.18;55.85
21111;BME280;10713;51.912;4.494;2024-03-25T10:44:13;100548.06;;;18.51;55.92
21111;BME280;10713;51.912;4.494;2024-03-25T10:46:39;100547.91;;;18.87;53.79
21111;BME280;10713;51.912;4.494;2024-03-25T10:49:14;100549.56;;;18.66;53.07
21111;BME280;10713;51.912;4.494;2024-03-25T10:51:43;100542.75;;;18.62;53.67
21111;BME280;10713;51.912;4.494;2024-03-25T10:54:10;100533.28;;;19.36;54.43
21111;BME280;10713;51.912;4.494;2024-03-25T10:56:37;100528.69;;;19.16;52.87
21111;BME280;10713;51.912;4.494;2024-03-25T10:59:04;100527.41;;;18.41;52.84
21111;BME280;10713;51.912;4.494;2024-03-25T11:01:31;100527.03;;;17.99;53.01
21111;BME280;10713;51.912;4.494;2024-03-25T11:03:57;100533.06;;;17.90;53.43
21111;BME280;10713;51.912;4.494;2024-03-25T11:06:23;100529.16;;;17.46;51.55
21111;BME280;10713;51.912;4.494;2024-03-25T11:08:58;100523.69;;;17.11;53.10
21111;BME280;10713;51.912;4.494;2024-03-25T11:11:30;100520.09;;;16.99;52.88
21111;BME280;10713;51.912;4.494;2024-03-25T11:13:56;100521.28;;;16.44;52.00
21111;BME280;10713;51.912;4.494;2024-03-25T11:16:31;100511.16;;;16.75;54.73
21111;BME280;10713;51.912;4.494;2024-03-25T11:19:03;100502.38;;;16.21;52.22
21111;BME280;10713;51.912;4.494;2024-03-25T11:21:28;100495.03;;;15.99;52.86
21111;BME280;10713;51.912;4.494;2024-03-25T11:23:54;100499.84;;;16.20;53.50
21111;BME280;10713;51.912;4.494;2024-03-25T11:26:21;100499.47;;;15.45;52.96
21111;BME280;10713;51.912;4.494;2024-03-25T11:28:47;100489.81;;;15.02;52.59
21111;BME280;10713;51.912;4.494;2024-03-25T11:31:13;100472.34;;;14.98;52.20
21111;BME280;10713;51.912;4.494;2024-03-25T11:33:39;100485.22;;;15.04;51.58
21111;BME280;10713;51.912;4.494;2024-03-25T11:36:05;100468.84;;;14.69;51.41
21111;BME280;10713;51.912;4.494;2024-03-25T11:38:30;100475.03;;;14.55;49.92
21111;BME280;10713;51.912;4.494;2024-03-25T11:40:56;100463.53;;;14.83;49.21
21111;BME280;10713;51.912;4.494;2024-03-25T11:43:22;100465.31;;;14.97;49.50
21111;BME280;10713;51.912;4.494;2024-03-25T11:45:48;100465.34;;;14.83;50.67
21111;BME280;10713;51.912;4.494;2024-03-25T11:48:15;100467.31;;;14.51;50.17
21111;BME280;10713;51.912;4.494;2024-03-25T11:50:41;100470.03;;;14.20;49.66
21111;BME280;10713;51.912;4.494;2024-03-25T11:53:07;100459.00;;;13.98;49.12
21111;BME280;10713;51.912;4.494;2024-03-25T11:55:32;100452.47;;;14.18;49.81
21111;BME280;10713;51.912;4.494;2024-03-25T11:57:58;100455.41;;;13.69;51.69
21111;BME280;10713;51.912;4.494;2024-03-25T12:00:24;100461.78;;;13.35;53.36
21111;BME280;10713;51.912;4.494;2024-03-25T12:02:49;100455.03;;;13.45;54.49
21111;BME280;10713;51.912;4.494;2024-03-25T12:05:16;100461.75;;;13.50;55.42
21111;BME280;10713;51.912;4.494;2024-03-25T12:07:42;100449.72;;;13.45;55.93
21111;BME280;10713;51.912;4.494;2024-03-25T12:10:07;100456.28;;;13.84;56.03
21111;BME280;10713;51.912;4.494;2024-03-25T12:12:51;100457.41;;;14.24;55.82
21111;BME280;10713;51.912;4.494;2024-03-25T12:15:17;100451.38;;;14.51;56.02
21111;BME280;10713;51.912;4.494;2024-03-25T12:17:42;100444.66;;;14.74;54.92
21111;BME280;10713;51.912;4.494;2024-03-25T12:20:09;100441.22;;;14.86;54.46
21111;BME280;10713;51.912;4.494;2024-03-25T12:22:35;100433.66;;;14.80;53.49
21111;BME280;10713;51.912;4.494;2024-03-25T12:25:04;100425.53;;;14.96;54.63
21111;BME280;10713;51.912;4.494;2024-03-25T12:27:34;100424.81;;;14.94;53.54
21111;BME280;10713;51.912;4.494;2024-03-25T12:30:06;100417.97;;;14.32;52.37
21111;BME280;10713;51.912;4.494;2024-03-25T12:32:35;100422.81;;;13.67;52.59
21111;BME280;10713;51.912;4.494;2024-03-25T12:35:01;100413.78;;;13.55;53.72
21111;BME280;10713;51.912;4.494;2024-03-25T12:37:26;100422.25;;;13.76;54.10
21111;BME280;10713;51.912;4.494;2024-03-25T12:39:52;100421.72;;;13.85;53.26
21111;BME280;10713;51.912;4.494;2024-03-25T12:42:17;100409.66;;;13.65;52.62
21111;BME280;10713;51.912;4.494;2024-03-25T12:44:43;100400.50;;;13.55;53.03